sensor_id;sensor_type;location;lat;lon;timestamp;P1;durP1;ratioP1;P2;durP2;ratioP2
48881;SDS011;57063;51.406;-2.402;2024-02-21T00:00:12;17.48;;;3.42;;
48881;SDS011;57063;51.406;-2.402;2024-02-21T00:02:38;32.97;;;4.78;;
48881;SDS011;57063;51.406;-2.402;2024-02-21T00:05:03;28.80;;;4.43;;
48881;SDS011;57063;51.406;-2.402;2024-02-21T00:07:28;36.95;;;4.70;;
48881;SDS011;57063;51.406;-2.402;2024-02-21T00:09:54;29.17;;;5.03;;
48881;SDS011;57063;51.406;-2.402;2024-02-21T00:12:19;19.02;;;3.97;;
48881;SDS011;57063;51.406;-2.402;2024-02-21T00:14:44;24.95;;;3.90;;
48881;SDS011;57063;51.406;-2.402;2024-02-21T00:17:09;28.58;;;4.55;;
48881;SDS011;57063;51.406;-2.402;2024-02-21T00:19:35;27.35;;;4.03;;
48881;SDS011;57063;51.406;-2.402;2024-02-21T00:22:01;26.55;;;4.70;;
48881;SDS011;57063;51.406;-2.402;2024-02-21T00:24:26;29.38;;;3.75;;
48881;SDS011;57063;51.406;-2.402;2024-02-21T00:26:51;38.58;;;6.10;;
48881;SDS011;57063;51.406;-2.402;2024-02-21T00:29:17;28.45;;;4.70;;
48881;SDS011;57063;51.406;-2.402;2024-02-21T00:31:42;24.70;;;3.47;;
48881;SDS011;57063;51.406;-2.402;2024-02-21T00:34:09;23.60;;;5.65;;
48881;SDS011;57063;51.406;-2.402;2024-02-21T00:36:36;32.83;;;5.07;;
48881;SDS011;57063;51.406;-2.402;2024-02-21T00:39:01;28.83;;;3.72;;
48881;SDS011;57063;51.406;-2.402;2024-02-21T00:41:27;32.13;;;4.05;;
48881;SDS011;57063;51.406;-2.402;2024-02-21T00:43:52;26.67;;;4.05;;
48881;SDS011;57063;51.406;-2.402;2024-02-21T00:46:18;15.27;;;3.42;;
48881;SDS011;57063;51.406;-2.402;2024-02-21T00:48:43;11.60;;;3.17;;
48881;SDS011;57063;51.406;-2.402;2024-02-21T00:51:08;26.67;;;2.92;;
48881;SDS011;57063;51.406;-2.402;2024-02-21T00:53:35;26.60;;;3.92;;
48881;SDS011;57063;51.406;-2.402;2024-02-21T00:56:07;19.65;;;3.50;;
48881;SDS011;57063;51.406;-2.402;2024-02-21T00:58:33;13.82;;;3.78;;
48881;SDS011;57063;51.406;-2.402;2024-02-21T01:01:00;17.63;;;2.75;;
48881;SDS011;57063;51.406;-2.402;2024-02-21T01:03:26;19.45;;;3.45;;
48881;SDS011;57063;51.406;-2.402;2024-02-21T01:05:52;22.75;;;3.60;;
48881;SDS011;57063;51.406;-2.402;2024-02-21T01:08:17;12.68;;;2.90;;
48881;SDS011;57063;51.406;-2.402;2024-02-21T01:10:43;20.85;;;2.95;;
48881;SDS011;57063;51.406;-2.402;2024-02-21T01:13:09;17.98;;;3.08;;
48881;SDS011;57063;51.406;-2.402;2024-02-21T01:15:35;22.90;;;4.45;;
48881;SDS011;57063;51.406;-2.402;2024-02-21T01:18:02;12.88;;;3.03;;
48881;SDS011;57063;51.406;-2.402;2024-02-21T01:20:31;14.68;;;3.42;;
48881;SDS011;57063;51.406;-2.402;2024-02-21T01:22:58;11.93;;;3.72;;
48881;SDS011;57063;51.406;-2.402;2024-02-21T01:25:23;14.45;;;3.50;;
48881;SDS011;57063;51.406;-2.402;2024-02-21T01:27:50;15.30;;;2.88;;
48881;SDS011;57063;51.406;-2.402;2024-02-21T01:30:18;25.80;;;4.40;;
48881;SDS011;57063;51.406;-2.402;2024-02-21T01:32:48;21.17;;;3.75;;
48881;SDS011;57063;51.406;-2.402;2024-02-21T01:35:18;17.58;;;3.72;;
48881;SDS011;57063;51.406;-2.402;2024-02-21T01:37:46;17.02;;;3.33;;
48881;SDS011;57063;51.406;-2.402;2024-02-21T01:40:15;16.23;;;4.03;;
48881;SDS011;57063;51.406;-2.402;2024-02-21T01:42:44;29.83;;;4.75;;
48881;SDS011;57063;51.406;-2.402;2024-02-21T01:45:12;16.88;;;4.00;;
48881;SDS011;57063;51.406;-2.402;2024-02-21T01:47:41;19.92;;;4.13;;
48881;SDS011;57063;51.406;-2.402;2024-02-21T01:50:11;19.30;;;4.23;;
48881;SDS011;57063;51.406;-2.402;2024-02-21T01:52:37;13.30;;;3.78;;
48881;SDS011;57063;51.406;-2.402;2024-02-21T01:55:03;14.40;;;3.67;;
48881;SDS011;57063;51.406;-2.402;2024-02-21T01:57:33;22.23;;;4.78;;
48881;SDS011;57063;51.406;-2.402;2024-02-21T02:00:00;15.93;;;3.70;;
48881;SDS011;57063;51.406;-2.402;2024-02-21T02:02:31;18.27;;;3.13;;
48881;SDS011;57063;51.406;-2.402;2024-02-21T02:05:20;18.70;;;3.67;;
48881;SDS011;57063;51.406;-2.402;2024-02-21T02:07:47;17.20;;;3.63;;
48881;SDS011;57063;51.406;-2.402;2024-02-21T02:10:35;17.25;;;3.92;;
48881;SDS011;57063;51.406;-2.402;2024-02-21T02:13:11;17.25;;;3.80;;
48881;SDS011;57063;51.406;-2.402;2024-02-21T02:15:48;21.08;;;4.05;;
48881;SDS011;57063;51.406;-2.402;2024-02-21T02:23:45;17.48;;;3.17;;
48881;SDS011;57063;51.406;-2.402;2024-02-21T02:26:13;23.50;;;4.63;;
48881;SDS011;57063;51.406;-2.402;2024-02-21T02:28:38;22.23;;;4.28;;
48881;SDS011;57063;51.406;-2.402;2024-02-21T02:31:04;13.13;;;3.10;;
48881;SDS011;57063;51.406;-2.402;2024-02-21T02:33:30;11.52;;;2.92;;
48881;SDS011;57063;51.406;-2.402;2024-02-21T02:35:56;16.65;;;3.13;;
48881;SDS011;57063;51.406;-2.402;2024-02-21T02:38:21;22.92;;;4.68;;
48881;SDS011;57063;51.406;-2.402;2024-02-21T02:40:46;14.05;;;3.10;;
48881;SDS011;57063;51.406;-2.402;2024-02-21T02:43:12;17.20;;;3.25;;
48881;SDS011;57063;51.406;-2.402;2024-02-21T02:45:37;19.17;;;3.42;;
48881;SDS011;57063;51.406;-2.402;2024-02-21T02:48:03;12.38;;;3.40;;
48881;SDS011;57063;51.406;-2.402;2024-02-21T02:50:28;16.77;;;3.95;;
48881;SDS011;57063;51.406;-2.402;2024-02-21T02:52:54;18.77;;;4.88;;
48881;SDS011;57063;51.406;-2.402;2024-02-21T02:55:19;10.95;;;3.30;;
48881;SDS011;57063;51.406;-2.402;2024-02-21T02:57:45;16.27;;;4.22;;
48881;SDS011;57063;51.406;-2.402;2024-02-21T03:00:11;17.15;;;3.28;;
48881;SDS011;57063;51.406;-2.402;2024-02-21T03:02:37;13.00;;;3.22;;
48881;SDS011;57063;51.406;-2.402;2024-02-21T03:05:03;11.02;;;3.22;;
48881;SDS011;57063;51.406;-2.402;2024-02-21T03:07:36;14.98;;;3.53;;
48881;SDS011;57063;51.406;-2.402;2024-02-21T03:10:01;13.13;;;2.95;;
48881;SDS011;57063;51.406;-2.402;2024-02-21T03:12:26;12.65;;;3.10;;
48881;SDS011;57063;51.406;-2.402;2024-02-21T03:14:53;10.73;;;3.00;;
48881;SDS011;57063;51.406;-2.402;2024-02-21T03:17:18;16.95;;;3.15;;
48881;SDS011;57063;51.406;-2.402;2024-02-21T03:19:43;12.40;;;3.10;;
48881;SDS011;57063;51.406;-2.402;2024-02-21T03:22:09;12.00;;;2.92;;
48881;SDS011;57063;51.406;-2.402;2024-02-21T03:24:34;14.73;;;2.97;;
48881;SDS011;57063;51.406;-2.402;2024-02-21T03:26:59;15.10;;;3.50;;
48881;SDS011;57063;51.406;-2.402;2024-02-21T03:29:25;13.90;;;3.08;;
48881;SDS011;57063;51.406;-2.402;2024-02-21T03:31:50;13.23;;;2.20;;
48881;SDS011;57063;51.406;-2.402;2024-02-21T03:34:15;22.65;;;3.00;;
48881;SDS011;57063;51.406;-2.402;2024-02-21T03:36:40;9.07;;;2.70;;
48881;SDS011;57063;51.406;-2.402;2024-02-21T03:39:06;14.63;;;2.50;;
48881;SDS011;57063;51.406;-2.402;2024-02-21T03:41:33;12.23;;;4.20;;
48881;SDS011;57063;51.406;-2.402;2024-02-21T03:43:58;13.82;;;2.83;;
48881;SDS011;57063;51.406;-2.402;2024-02-21T03:46:24;16.80;;;3.45;;
48881;SDS011;57063;51.406;-2.402;2024-02-21T03:48:49;13.32;;;2.55;;
48881;SDS011;57063;51.406;-2.402;2024-02-21T03:51:15;14.60;;;4.25;;
48881;SDS011;57063;51.406;-2.402;2024-02-21T03:53:40;17.27;;;2.67;;
48881;SDS011;57063;51.406;-2.402;2024-02-21T03:56:05;11.80;;;3.33;;
48881;SDS011;57063;51.406;-2.402;2024-02-21T03:58:30;15.10;;;2.75;;
48881;SDS011;57063;51.406;-2.402;2024-02-21T04:00:56;17.30;;;2.67;;
48881;SDS011;57063;51.406;-2.402;2024-02-21T04:03:21;13.82;;;3.85;;
48881;SDS011;57063;51.406;-2.402;2024-02-21T04:05:46;10.15;;;3.05;;
48881;SDS011;57063;51.406;-2.402;2024-02-21T04:08:12;13.60;;;3.13;;
48881;SDS011;57063;51.406;-2.402;2024-02-21T04:10:37;15.52;;;3.78;;
48881;SDS011;57063;51.406;-2.402;2024-02-21T04:13:03;17.80;;;3.47;;
48881;SDS011;57063;51.406;-2.402;2024-02-21T04:15:28;18.80;;;3.95;;
48881;SDS011;57063;51.406;-2.402;2024-02-21T04:17:55;15.02;;;3.50;;
48881;SDS011;57063;51.406;-2.402;2024-02-21T04:20:20;12.68;;;3.03;;
48881;SDS011;57063;51.406;-2.402;2024-02-21T04:22:45;19.65;;;3.88;;
48881;SDS011;57063;51.406;-2.402;2024-02-21T04:25:11;20.10;;;4.30;;
48881;SDS011;57063;51.406;-2.402;2024-02-21T04:27:37;13.65;;;3.17;;
48881;SDS011;57063;51.406;-2.402;2024-02-21T04:30:03;11.98;;;3.05;;
48881;SDS011;57063;51.406;-2.402;2024-02-21T04:32:28;13.52;;;3.50;;
48881;SDS011;57063;51.406;-2.402;2024-02-21T04:34:53;19.83;;;3.67;;
48881;SDS011;57063;51.406;-2.402;2024-02-21T04:37:18;17.87;;;4.03;;
48881;SDS011;57063;51.406;-2.402;2024-02-21T04:39:44;12.13;;;3.30;;
48881;SDS011;57063;51.406;-2.402;2024-02-21T04:42:10;14.70;;;3.20;;
48881;SDS011;57063;51.406;-2.402;2024-02-21T04:44:35;18.27;;;3.72;;
48881;SDS011;57063;51.406;-2.402;2024-02-21T04:47:00;22.73;;;3.53;;
48881;SDS011;57063;51.406;-2.402;2024-02-21T04:49:26;15.38;;;4.93;;
48881;SDS011;57063;51.406;-2.402;2024-02-21T04:51:51;14.38;;;3.20;;
48881;SDS011;57063;51.406;-2.402;2024-02-21T04:54:16;15.55;;;3.38;;
48881;SDS011;57063;51.406;-2.402;2024-02-21T04:56:42;22.88;;;3.58;;
48881;SDS011;57063;51.406;-2.402;2024-02-21T04:59:07;16.40;;;3.27;;
48881;SDS011;57063;51.406;-2.402;2024-02-21T05:01:32;16.80;;;3.55;;
48881;SDS011;57063;51.406;-2.402;2024-02-21T05:03:57;15.33;;;3.30;;
48881;SDS011;57063;51.406;-2.402;2024-02-21T05:06:22;13.80;;;3.28;;
48881;SDS011;57063;51.406;-2.402;2024-02-21T05:08:48;11.43;;;3.90;;
48881;SDS011;57063;51.406;-2.402;2024-02-21T05:11:13;14.30;;;3.42;;
48881;SDS011;57063;51.406;-2.402;2024-02-21T05:13:39;13.93;;;3.80;;
48881;SDS011;57063;51.406;-2.402;2024-02-21T05:16:05;14.98;;;3.03;;
48881;SDS011;57063;51.406;-2.402;2024-02-21T05:18:30;14.70;;;3.30;;
48881;SDS011;57063;51.406;-2.402;2024-02-21T05:20:55;12.23;;;3.05;;
48881;SDS011;57063;51.406;-2.402;2024-02-21T05:23:21;17.30;;;2.63;;
48881;SDS011;57063;51.406;-2.402;2024-02-21T05:25:46;12.00;;;2.30;;
48881;SDS011;57063;51.406;-2.402;2024-02-21T05:28:11;24.02;;;2.72;;
48881;SDS011;57063;51.406;-2.402;2024-02-21T05:30:37;11.63;;;2.38;;
48881;SDS011;57063;51.406;-2.402;2024-02-21T05:33:05;20.23;;;5.05;;
48881;SDS011;57063;51.406;-2.402;2024-02-21T05:35:32;14.85;;;2.33;;
48881;SDS011;57063;51.406;-2.402;2024-02-21T05:37:58;8.13;;;2.08;;
48881;SDS011;57063;51.406;-2.402;2024-02-21T05:40:24;19.90;;;2.67;;
48881;SDS011;57063;51.406;-2.402;2024-02-21T05:42:50;12.32;;;2.08;;
48881;SDS011;57063;51.406;-2.402;2024-02-21T05:45:16;15.88;;;2.50;;
48881;SDS011;57063;51.406;-2.402;2024-02-21T05:47:42;18.05;;;2.08;;
48881;SDS011;57063;51.406;-2.402;2024-02-21T05:50:07;10.73;;;2.05;;
48881;SDS011;57063;51.406;-2.402;2024-02-21T05:52:33;13.82;;;3.88;;
48881;SDS011;57063;51.406;-2.402;2024-02-21T05:54:59;15.77;;;2.17;;
48881;SDS011;57063;51.406;-2.402;2024-02-21T05:57:24;12.35;;;2.00;;
48881;SDS011;57063;51.406;-2.402;2024-02-21T05:59:49;5.50;;;1.88;;
48881;SDS011;57063;51.406;-2.402;2024-02-21T06:02:15;8.30;;;1.45;;
48881;SDS011;57063;51.406;-2.402;2024-02-21T06:04:40;15.40;;;2.55;;
48881;SDS011;57063;51.406;-2.402;2024-02-21T06:07:07;9.80;;;2.78;;
48881;SDS011;57063;51.406;-2.402;2024-02-21T06:09:33;10.40;;;1.55;;
48881;SDS011;57063;51.406;-2.402;2024-02-21T06:11:58;9.90;;;1.90;;
48881;SDS011;57063;51.406;-2.402;2024-02-21T06:14:23;6.72;;;1.67;;
48881;SDS011;57063;51.406;-2.402;2024-02-21T06:16:49;16.05;;;2.13;;
48881;SDS011;57063;51.406;-2.402;2024-02-21T06:19:14;11.02;;;2.13;;
48881;SDS011;57063;51.406;-2.402;2024-02-21T06:21:39;12.05;;;2.83;;
48881;SDS011;57063;51.406;-2.402;2024-02-21T06:24:05;12.25;;;3.00;;
48881;SDS011;57063;51.406;-2.402;2024-02-21T06:26:30;8.80;;;2.05;;
48881;SDS011;57063;51.406;-2.402;2024-02-21T06:28:55;10.15;;;1.90;;
48881;SDS011;57063;51.406;-2.402;2024-02-21T06:31:21;12.80;;;1.90;;
48881;SDS011;57063;51.406;-2.402;2024-02-21T06:33:46;12.60;;;2.50;;
48881;SDS011;57063;51.406;-2.402;2024-02-21T06:36:11;11.82;;;2.70;;
48881;SDS011;57063;51.406;-2.402;2024-02-21T06:38:37;14.25;;;2.55;;
48881;SDS011;57063;51.406;-2.402;2024-02-21T06:41:02;18.42;;;2.67;;
48881;SDS011;57063;51.406;-2.402;2024-02-21T06:43:27;10.93;;;1.95;;
48881;SDS011;57063;51.406;-2.402;2024-02-21T06:45:53;13.50;;;2.75;;
48881;SDS011;57063;51.406;-2.402;2024-02-21T06:48:19;13.75;;;2.40;;
48881;SDS011;57063;51.406;-2.402;2024-02-21T06:50:44;10.32;;;2.47;;
48881;SDS011;57063;51.406;-2.402;2024-02-21T06:53:10;14.65;;;3.78;;
48881;SDS011;57063;51.406;-2.402;2024-02-21T06:55:35;14.18;;;3.03;;
48881;SDS011;57063;51.406;-2.402;2024-02-21T06:58:00;18.60;;;2.45;;
48881;SDS011;57063;51.406;-2.402;2024-02-21T07:00:27;12.05;;;2.80;;
48881;SDS011;57063;51.406;-2.402;2024-02-21T07:02:53;9.95;;;3.20;;
48881;SDS011;57063;51.406;-2.402;2024-02-21T07:05:18;12.20;;;2.25;;
48881;SDS011;57063;51.406;-2.402;2024-02-21T07:07:43;10.70;;;2.00;;
48881;SDS011;57063;51.406;-2.402;2024-02-21T07:10:09;13.27;;;2.38;;
48881;SDS011;57063;51.406;-2.402;2024-02-21T07:12:35;8.85;;;2.95;;
48881;SDS011;57063;51.406;-2.402;2024-02-21T07:15:03;15.27;;;2.65;;
48881;SDS011;57063;51.406;-2.402;2024-02-21T07:17:29;10.00;;;2.33;;
48881;SDS011;57063;51.406;-2.402;2024-02-21T07:19:54;8.15;;;2.30;;
48881;SDS011;57063;51.406;-2.402;2024-02-21T07:22:21;8.10;;;1.83;;
48881;SDS011;57063;51.406;-2.402;2024-02-21T07:24:47;13.95;;;1.92;;
48881;SDS011;57063;51.406;-2.402;2024-02-21T07:27:13;8.73;;;1.77;;
48881;SDS011;57063;51.406;-2.402;2024-02-21T07:29:38;11.45;;;2.40;;
48881;SDS011;57063;51.406;-2.402;2024-02-21T07:32:04;19.33;;;2.75;;
48881;SDS011;57063;51.406;-2.402;2024-02-21T07:34:29;13.82;;;2.45;;
48881;SDS011;57063;51.406;-2.402;2024-02-21T07:36:55;19.35;;;3.70;;
48881;SDS011;57063;51.406;-2.402;2024-02-21T07:39:20;11.35;;;2.42;;
48881;SDS011;57063;51.406;-2.402;2024-02-21T07:41:45;14.13;;;1.88;;
48881;SDS011;57063;51.406;-2.402;2024-02-21T07:44:13;17.00;;;2.17;;
48881;SDS011;57063;51.406;-2.402;2024-02-21T07:46:38;12.85;;;1.98;;
48881;SDS011;57063;51.406;-2.402;2024-02-21T07:49:03;3.25;;;1.50;;
48881;SDS011;57063;51.406;-2.402;2024-02-21T07:51:29;16.02;;;1.67;;
48881;SDS011;57063;51.406;-2.402;2024-02-21T07:53:54;13.27;;;1.58;;
48881;SDS011;57063;51.406;-2.402;2024-02-21T07:56:20;15.73;;;1.27;;
48881;SDS011;57063;51.406;-2.402;2024-02-21T07:58:46;9.73;;;1.50;;
48881;SDS011;57063;51.406;-2.402;2024-02-21T08:01:11;6.07;;;1.23;;
48881;SDS011;57063;51.406;-2.402;2024-02-21T08:03:36;6.13;;;1.25;;
48881;SDS011;57063;51.406;-2.402;2024-02-21T08:06:02;6.45;;;1.67;;
48881;SDS011;57063;51.406;-2.402;2024-02-21T08:08:28;8.10;;;1.45;;
48881;SDS011;57063;51.406;-2.402;2024-02-21T08:10:53;9.32;;;1.42;;
48881;SDS011;57063;51.406;-2.402;2024-02-21T08:13:19;3.75;;;1.92;;
48881;SDS011;57063;51.406;-2.402;2024-02-21T08:15:46;7.55;;;1.50;;
48881;SDS011;57063;51.406;-2.402;2024-02-21T08:18:11;8.35;;;1.27;;
48881;SDS011;57063;51.406;-2.402;2024-02-21T08:20:37;4.60;;;1.15;;
48881;SDS011;57063;51.406;-2.402;2024-02-21T08:23:02;4.20;;;3.33;;
48881;SDS011;57063;51.406;-2.402;2024-02-21T08:25:28;6.93;;;0.80;;
48881;SDS011;57063;51.406;-2.402;2024-02-21T08:27:56;5.50;;;0.80;;
48881;SDS011;57063;51.406;-2.402;2024-02-21T08:30:22;4.50;;;1.65;;
48881;SDS011;57063;51.406;-2.402;2024-02-21T08:32:47;9.05;;;1.45;;
48881;SDS011;57063;51.406;-2.402;2024-02-21T08:35:13;7.78;;;1.42;;
48881;SDS011;57063;51.406;-2.402;2024-02-21T08:37:38;14.80;;;1.15;;
48881;SDS011;57063;51.406;-2.402;2024-02-21T08:40:04;3.55;;;0.75;;
48881;SDS011;57063;51.406;-2.402;2024-02-21T08:42:33;5.65;;;0.98;;
48881;SDS011;57063;51.406;-2.402;2024-02-21T08:45:00;4.68;;;0.85;;
48881;SDS011;57063;51.406;-2.402;2024-02-21T08:47:27;2.08;;;0.60;;
48881;SDS011;57063;51.406;-2.402;2024-02-21T08:49:52;3.63;;;0.70;;
48881;SDS011;57063;51.406;-2.402;2024-02-21T08:52:17;6.63;;;0.93;;
48881;SDS011;57063;51.406;-2.402;2024-02-21T08:54:43;4.55;;;1.00;;
48881;SDS011;57063;51.406;-2.402;2024-02-21T08:57:09;6.38;;;0.95;;
48881;SDS011;57063;51.406;-2.402;2024-02-21T08:59:34;4.25;;;0.60;;
48881;SDS011;57063;51.406;-2.402;2024-02-21T09:02:00;8.00;;;1.25;;
48881;SDS011;57063;51.406;-2.402;2024-02-21T09:04:25;9.10;;;1.55;;
48881;SDS011;57063;51.406;-2.402;2024-02-21T09:06:50;4.93;;;0.70;;
48881;SDS011;57063;51.406;-2.402;2024-02-21T09:09:17;6.03;;;0.82;;
48881;SDS011;57063;51.406;-2.402;2024-02-21T09:11:44;4.13;;;1.13;;
48881;SDS011;57063;51.406;-2.402;2024-02-21T09:14:10;17.50;;;1.08;;
48881;SDS011;57063;51.406;-2.402;2024-02-21T09:16:35;11.57;;;0.98;;
48881;SDS011;57063;51.406;-2.402;2024-02-21T09:19:01;9.65;;;1.08;;
48881;SDS011;57063;51.406;-2.402;2024-02-21T09:21:29;4.75;;;0.50;;
48881;SDS011;57063;51.406;-2.402;2024-02-21T09:23:54;4.40;;;0.70;;
48881;SDS011;57063;51.406;-2.402;2024-02-21T09:26:20;2.85;;;0.65;;
48881;SDS011;57063;51.406;-2.402;2024-02-21T09:28:46;3.30;;;0.73;;
48881;SDS011;57063;51.406;-2.402;2024-02-21T09:31:14;8.35;;;0.80;;
48881;SDS011;57063;51.406;-2.402;2024-02-21T09:33:40;9.25;;;0.98;;
48881;SDS011;57063;51.406;-2.402;2024-02-21T09:36:06;2.88;;;0.60;;
48881;SDS011;57063;51.406;-2.402;2024-02-21T09:38:32;12.05;;;0.80;;
48881;SDS011;57063;51.406;-2.402;2024-02-21T09:41:04;7.82;;;0.73;;
48881;SDS011;57063;51.406;-2.402;2024-02-21T09:43:33;6.57;;;0.77;;
48881;SDS011;57063;51.406;-2.402;2024-02-21T09:46:01;4.05;;;0.75;;
48881;SDS011;57063;51.406;-2.402;2024-02-21T09:48:39;4.53;;;0.63;;
48881;SDS011;57063;51.406;-2.402;2024-02-21T09:51:10;4.63;;;0.70;;
48881;SDS011;57063;51.406;-2.402;2024-02-21T09:53:40;2.30;;;0.50;;
48881;SDS011;57063;51.406;-2.402;2024-02-21T09:56:07;4.10;;;0.60;;
48881;SDS011;57063;51.406;-2.402;2024-02-21T09:58:33;8.95;;;0.85;;
48881;SDS011;57063;51.406;-2.402;2024-02-21T10:01:00;6.15;;;0.70;;
48881;SDS011;57063;51.406;-2.402;2024-02-21T10:03:25;7.55;;;2.50;;
48881;SDS011;57063;51.406;-2.402;2024-02-21T10:05:51;4.35;;;0.80;;
48881;SDS011;57063;51.406;-2.402;2024-02-21T10:08:16;5.78;;;0.60;;
48881;SDS011;57063;51.406;-2.402;2024-02-21T10:10:42;4.97;;;0.50;;
48881;SDS011;57063;51.406;-2.402;2024-02-21T10:13:09;3.67;;;0.52;;
48881;SDS011;57063;51.406;-2.402;2024-02-21T10:15:35;5.75;;;1.00;;
48881;SDS011;57063;51.406;-2.402;2024-02-21T10:18:01;6.40;;;0.50;;
48881;SDS011;57063;51.406;-2.402;2024-02-21T10:20:28;2.90;;;0.47;;
48881;SDS011;57063;51.406;-2.402;2024-02-21T10:23:00;2.33;;;0.35;;
48881;SDS011;57063;51.406;-2.402;2024-02-21T10:25:30;5.97;;;0.50;;
48881;SDS011;57063;51.406;-2.402;2024-02-21T10:27:59;7.25;;;0.60;;
48881;SDS011;57063;51.406;-2.402;2024-02-21T10:30:24;4.80;;;0.75;;
48881;SDS011;57063;51.406;-2.402;2024-02-21T10:32:50;6.93;;;0.82;;
48881;SDS011;57063;51.406;-2.402;2024-02-21T10:35:25;9.18;;;0.88;;
48881;SDS011;57063;51.406;-2.402;2024-02-21T10:37:50;1.50;;;0.43;;
48881;SDS011;57063;51.406;-2.402;2024-02-21T10:40:20;7.30;;;1.00;;
48881;SDS011;57063;51.406;-2.402;2024-02-21T10:42:45;7.88;;;0.70;;
48881;SDS011;57063;51.406;-2.402;2024-02-21T10:45:11;4.22;;;0.68;;
48881;SDS011;57063;51.406;-2.402;2024-02-21T10:47:37;3.78;;;0.85;;
48881;SDS011;57063;51.406;-2.402;2024-02-21T10:50:04;4.95;;;0.63;;
48881;SDS011;57063;51.406;-2.402;2024-02-21T10:52:36;4.00;;;0.50;;
48881;SDS011;57063;51.406;-2.402;2024-02-21T10:55:15;5.13;;;0.70;;
48881;SDS011;57063;51.406;-2.402;2024-02-21T10:57:41;4.35;;;0.52;;
48881;SDS011;57063;51.406;-2.402;2024-02-21T11:00:08;3.17;;;0.77;;
48881;SDS011;57063;51.406;-2.402;2024-02-21T11:02:37;3.63;;;0.50;;
48881;SDS011;57063;51.406;-2.402;2024-02-21T11:05:04;2.78;;;0.40;;
48881;SDS011;57063;51.406;-2.402;2024-02-21T11:07:30;3.03;;;0.50;;
48881;SDS011;57063;51.406;-2.402;2024-02-21T11:09:57;1.95;;;0.40;;
48881;SDS011;57063;51.406;-2.402;2024-02-21T11:12:24;4.03;;;0.50;;
48881;SDS011;57063;51.406;-2.402;2024-02-21T11:14:51;5.15;;;0.75;;
48881;SDS011;57063;51.406;-2.402;2024-02-21T11:17:16;3.22;;;0.40;;
48881;SDS011;57063;51.406;-2.402;2024-02-21T11:19:42;5.72;;;0.50;;
48881;SDS011;57063;51.406;-2.402;2024-02-21T11:22:14;5.90;;;0.50;;
48881;SDS011;57063;51.406;-2.402;2024-02-21T11:24:39;3.28;;;0.57;;
48881;SDS011;57063;51.406;-2.402;2024-02-21T11:29:43;3.78;;;0.60;;
48881;SDS011;57063;51.406;-2.402;2024-02-21T11:32:13;1.70;;;0.20;;
48881;SDS011;57063;51.406;-2.402;2024-02-21T11:34:40;2.55;;;0.47;;
48881;SDS011;57063;51.406;-2.402;2024-02-21T11:37:14;5.72;;;1.35;;
48881;SDS011;57063;51.406;-2.402;2024-02-21T11:39:43;4.57;;;0.43;;
48881;SDS011;57063;51.406;-2.402;2024-02-21T11:42:08;2.45;;;0.50;;
48881;SDS011;57063;51.406;-2.402;2024-02-21T11:44:34;1.50;;;0.32;;
48881;SDS011;57063;51.406;-2.402;2024-02-21T11:47:00;5.65;;;1.30;;
48881;SDS011;57063;51.406;-2.402;2024-02-21T11:49:26;1.65;;;0.25;;
48881;SDS011;57063;51.406;-2.402;2024-02-21T11:52:01;2.17;;;0.40;;
48881;SDS011;57063;51.406;-2.402;2024-02-21T11:54:29;2.90;;;0.30;;
48881;SDS011;57063;51.406;-2.402;2024-02-21T11:56:54;4.20;;;0.30;;
48881;SDS011;57063;51.406;-2.402;2024-02-21T11:59:21;2.75;;;0.40;;
48881;SDS011;57063;51.406;-2.402;2024-02-21T12:01:46;1.27;;;0.20;;
48881;SDS011;57063;51.406;-2.402;2024-02-21T12:04:12;3.72;;;0.32;;
48881;SDS011;57063;51.406;-2.402;2024-02-21T12:06:38;4.55;;;0.40;;
48881;SDS011;57063;51.406;-2.402;2024-02-21T12:09:04;6.47;;;0.50;;
48881;SDS011;57063;51.406;-2.402;2024-02-21T12:11:33;3.33;;;0.47;;
48881;SDS011;57063;51.406;-2.402;2024-02-21T12:13:59;1.88;;;0.40;;
48881;SDS011;57063;51.406;-2.402;2024-02-21T12:16:26;3.20;;;0.43;;
48881;SDS011;57063;51.406;-2.402;2024-02-21T12:18:53;12.88;;;2.97;;
48881;SDS011;57063;51.406;-2.402;2024-02-21T12:21:18;6.32;;;0.68;;
48881;SDS011;57063;51.406;-2.402;2024-02-21T12:23:44;1.52;;;0.52;;
48881;SDS011;57063;51.406;-2.402;2024-02-21T12:26:09;4.65;;;0.85;;
48881;SDS011;57063;51.406;-2.402;2024-02-21T12:28:34;5.68;;;1.02;;
48881;SDS011;57063;51.406;-2.402;2024-02-21T12:31:00;10.75;;;1.77;;
48881;SDS011;57063;51.406;-2.402;2024-02-21T12:33:25;5.68;;;0.98;;
48881;SDS011;57063;51.406;-2.402;2024-02-21T12:35:51;5.85;;;0.82;;
48881;SDS011;57063;51.406;-2.402;2024-02-21T12:38:16;7.40;;;0.70;;
48881;SDS011;57063;51.406;-2.402;2024-02-21T12:40:43;3.83;;;0.80;;
48881;SDS011;57063;51.406;-2.402;2024-02-21T12:43:08;7.40;;;0.70;;
48881;SDS011;57063;51.406;-2.402;2024-02-21T12:45:34;8.18;;;0.77;;
48881;SDS011;57063;51.406;-2.402;2024-02-21T12:48:00;5.88;;;0.98;;
48881;SDS011;57063;51.406;-2.402;2024-02-21T12:50:25;4.60;;;0.55;;
48881;SDS011;57063;51.406;-2.402;2024-02-21T12:52:51;5.53;;;0.60;;
48881;SDS011;57063;51.406;-2.402;2024-02-21T12:55:16;2.30;;;0.50;;
48881;SDS011;57063;51.406;-2.402;2024-02-21T12:57:42;2.70;;;0.60;;
48881;SDS011;57063;51.406;-2.402;2024-02-21T13:00:07;1.67;;;0.45;;
48881;SDS011;57063;51.406;-2.402;2024-02-21T13:02:34;5.00;;;0.88;;
48881;SDS011;57063;51.406;-2.402;2024-02-21T13:04:59;2.55;;;0.65;;
48881;SDS011;57063;51.406;-2.402;2024-02-21T13:07:25;5.68;;;1.25;;
48881;SDS011;57063;51.406;-2.402;2024-02-21T13:09:51;9.30;;;1.38;;
48881;SDS011;57063;51.406;-2.402;2024-02-21T13:12:16;12.27;;;1.73;;
48881;SDS011;57063;51.406;-2.402;2024-02-21T13:14:42;6.35;;;0.88;;
48881;SDS011;57063;51.406;-2.402;2024-02-21T13:17:09;10.82;;;0.77;;
48881;SDS011;57063;51.406;-2.402;2024-02-21T13:19:34;6.68;;;1.73;;
48881;SDS011;57063;51.406;-2.402;2024-02-21T13:22:00;8.38;;;1.73;;
48881;SDS011;57063;51.406;-2.402;2024-02-21T13:24:27;2.53;;;0.77;;
48881;SDS011;57063;51.406;-2.402;2024-02-21T13:26:52;7.57;;;0.90;;
48881;SDS011;57063;51.406;-2.402;2024-02-21T13:29:18;5.35;;;0.57;;
48881;SDS011;57063;51.406;-2.402;2024-02-21T13:31:43;6.53;;;1.38;;
48881;SDS011;57063;51.406;-2.402;2024-02-21T13:34:09;5.65;;;0.98;;
48881;SDS011;57063;51.406;-2.402;2024-02-21T13:36:34;12.07;;;1.10;;
48881;SDS011;57063;51.406;-2.402;2024-02-21T13:39:00;3.05;;;1.15;;
48881;SDS011;57063;51.406;-2.402;2024-02-21T13:41:25;5.25;;;0.85;;
48881;SDS011;57063;51.406;-2.402;2024-02-21T13:43:54;8.93;;;0.95;;
48881;SDS011;57063;51.406;-2.402;2024-02-21T13:46:19;5.45;;;0.70;;
48881;SDS011;57063;51.406;-2.402;2024-02-21T13:48:45;2.50;;;0.60;;
48881;SDS011;57063;51.406;-2.402;2024-02-21T13:51:10;4.90;;;0.73;;
48881;SDS011;57063;51.406;-2.402;2024-02-21T13:53:36;2.33;;;0.85;;
48881;SDS011;57063;51.406;-2.402;2024-02-21T13:56:02;3.50;;;0.63;;
48881;SDS011;57063;51.406;-2.402;2024-02-21T13:58:27;3.80;;;0.52;;
48881;SDS011;57063;51.406;-2.402;2024-02-21T14:00:53;3.30;;;0.60;;
48881;SDS011;57063;51.406;-2.402;2024-02-21T14:03:18;2.78;;;0.65;;
48881;SDS011;57063;51.406;-2.402;2024-02-21T14:05:45;7.35;;;1.00;;
48881;SDS011;57063;51.406;-2.402;2024-02-21T14:08:13;3.95;;;0.50;;
48881;SDS011;57063;51.406;-2.402;2024-02-21T14:10:40;5.28;;;0.90;;
48881;SDS011;57063;51.406;-2.402;2024-02-21T14:13:06;2.25;;;0.32;;
48881;SDS011;57063;51.406;-2.402;2024-02-21T14:15:31;5.03;;;0.63;;
48881;SDS011;57063;51.406;-2.402;2024-02-21T14:17:56;1.27;;;0.43;;
48881;SDS011;57063;51.406;-2.402;2024-02-21T14:20:22;4.55;;;0.80;;
48881;SDS011;57063;51.406;-2.402;2024-02-21T14:22:47;1.23;;;0.32;;
48881;SDS011;57063;51.406;-2.402;2024-02-21T14:25:13;0.98;;;0.30;;
48881;SDS011;57063;51.406;-2.402;2024-02-21T14:27:40;0.98;;;0.20;;
48881;SDS011;57063;51.406;-2.402;2024-02-21T14:30:06;0.43;;;0.13;;